Time;durP1;ratioP1;P1;durP2;ratioP2;P2;SDS_P1;SDS_P2;PMS_P1;PMS_P2;Temp;Humidity;BMP_temperature;BMP_pressure;BME280_temperature;BME280_humidity;BME280_pressure;Samples;Min_cycle;Max_cycle;Signal;HPM_P1;HPM_P2
2022/10/27 00:00:19;;;;;;;1.47;1.37;;;;;;;;;;5115761;28;20199;-87
2022/10/27 00:02:48;;;;;;;1.87;1.43;;;;;;;;;;5115321;28;20242;-86
2022/10/27 00:05:16;;;;;;;15.07;1.93;;;;;;;;;;5112863;28;20195;-86
2022/10/27 00:07:44;;;;;;;6.57;2.40;;;;;;;;;;5103999;28;20249;-86
2022/10/27 00:10:15;;;;;;;5.10;3.23;;;;;;;;;;5115060;28;20198;-86
2022/10/27 00:12:43;;;;;;;10.13;3.23;;;;;;;;;;5115293;27;20198;-87
2022/10/27 00:15:12;;;;;;;1.80;0.83;;;;;;;;;;5114601;28;20210;-86
2022/10/27 00:17:41;;;;;;;0.47;0.47;;;;;;;;;;5114937;28;20212;-86
2022/10/27 00:20:09;;;;;;;0.87;0.87;;;;;;;;;;5114584;28;20225;-86
2022/10/27 00:22:38;;;;;;;1.07;1.07;;;;;;;;;;5115724;28;20201;-86
2022/10/27 00:25:06;;;;;;;0.57;0.57;;;;;;;;;;5114588;28;20194;-86
2022/10/27 00:27:36;;;;;;;0.40;0.40;;;;;;;;;;5103934;28;20215;-86
2022/10/27 00:30:04;;;;;;;2.93;1.70;;;;;;;;;;5113247;28;20714;-87
2022/10/27 00:32:33;;;;;;;5.20;4.70;;;;;;;;;;5114521;28;20195;-87
2022/10/27 00:35:01;;;;;;;12.37;4.50;;;;;;;;;;5113794;28;20200;-86
2022/10/27 00:37:29;;;;;;;6.30;4.13;;;;;;;;;;5114271;28;20202;-86
2022/10/27 00:39:58;;;;;;;10.47;5.47;;;;;;;;;;5115426;28;20187;-87
2022/10/27 00:42:26;;;;;;;7.53;5.53;;;;;;;;;;5114283;28;20578;-87
2022/10/27 00:44:56;;;;;;;9.47;4.70;;;;;;;;;;5106503;28;20400;-86
2022/10/27 00:47:25;;;;;;;8.50;6.03;;;;;;;;;;5110174;28;20250;-86
2022/10/27 00:49:57;;;;;;;9.77;4.33;;;;;;;;;;5115345;28;20220;-86
2022/10/27 00:52:28;;;;;;;10.27;4.83;;;;;;;;;;5115000;28;20209;-86
2022/10/27 00:54:59;;;;;;;12.27;6.57;;;;;;;;;;5114992;28;20210;-87
2022/10/27 00:57:28;;;;;;;14.30;6.27;;;;;;;;;;5114115;28;20228;-86
2022/10/27 00:59:58;;;;;;;11.37;5.27;;;;;;;;;;5113780;28;20198;-86
2022/10/27 01:02:27;;;;;;;10.40;6.00;;;;;;;;;;5114126;28;20230;-86
2022/10/27 01:04:58;;;;;;;9.83;5.30;;;;;;;;;;5113985;28;20350;-86
2022/10/27 01:07:26;;;;;;;6.43;5.23;;;;;;;;;;5114199;28;20242;-86
2022/10/27 01:09:55;;;;;;;10.53;5.93;;;;;;;;;;5114923;28;20271;-87
2022/10/27 01:12:23;;;;;;;7.13;4.57;;;;;;;;;;5102312;28;20189;-86
2022/10/27 01:14:52;;;;;;;7.60;5.47;;;;;;;;;;5113718;28;20197;-87
2022/10/27 01:17:30;;;;;;;6.07;2.63;;;;;;;;;;5113535;28;20202;-87
2022/10/27 01:20:31;;;;;;;5.77;5.17;;;;;;;;;;5113582;28;20210;-86
2022/10/27 01:23:01;;;;;;;14.57;6.60;;;;;;;;;;5113746;28;20203;-86
2022/10/27 01:25:47;;;;;;;7.67;6.17;;;;;;;;;;5114347;28;20198;-86
2022/10/27 01:28:37;;;;;;;10.23;5.50;;;;;;;;;;5061071;28;20270;-86
2022/10/27 01:31:09;;;;;;;9.70;4.43;;;;;;;;;;5113039;28;20239;-87
2022/10/27 01:33:41;;;;;;;10.43;5.67;;;;;;;;;;5113373;28;20238;-86
2022/10/27 01:36:14;;;;;;;4.23;3.53;;;;;;;;;;5113041;28;20237;-86
2022/10/27 01:38:46;;;;;;;14.27;6.30;;;;;;;;;;5113420;28;20218;-87
2022/10/27 01:41:17;;;;;;;7.63;6.57;;;;;;;;;;5112800;28;20197;-86
2022/10/27 01:43:47;;;;;;;11.47;6.40;;;;;;;;;;5113182;28;20255;-86
2022/10/27 01:46:18;;;;;;;9.10;6.23;;;;;;;;;;5112732;28;20214;-86
2022/10/27 01:48:46;;;;;;;8.00;5.30;;;;;;;;;;5112565;28;20205;-87
2022/10/27 01:51:15;;;;;;;6.90;5.83;;;;;;;;;;5113233;28;20225;-86
2022/10/27 01:53:45;;;;;;;9.33;6.10;;;;;;;;;;5113154;28;20229;-87
2022/10/27 01:56:30;;;;;;;8.50;5.93;;;;;;;;;;5117202;27;20210;-86
2022/10/27 01:59:08;;;;;;;11.23;6.23;;;;;;;;;;5113074;28;20246;-87
2022/10/27 02:01:44;;;;;;;12.17;6.77;;;;;;;;;;5112611;28;20249;-86
2022/10/27 02:04:16;;;;;;;8.10;5.47;;;;;;;;;;5112670;28;20242;-86
2022/10/27 02:06:49;;;;;;;11.27;7.03;;;;;;;;;;5113600;28;20230;-87
2022/10/27 02:09:21;;;;;;;7.97;4.23;;;;;;;;;;5110596;28;20226;-87
2022/10/27 02:11:51;;;;;;;10.33;5.83;;;;;;;;;;5106131;28;20205;-86
2022/10/27 02:14:21;;;;;;;11.83;7.43;;;;;;;;;;5113762;28;20197;-86
2022/10/27 02:16:53;;;;;;;10.67;7.30;;;;;;;;;;5099502;28;20198;-86
2022/10/27 02:19:23;;;;;;;10.53;6.57;;;;;;;;;;5113543;28;20205;-86
2022/10/27 02:21:53;;;;;;;10.27;7.03;;;;;;;;;;5112541;28;20201;-87
2022/10/27 02:24:22;;;;;;;5.27;2.60;;;;;;;;;;5112670;28;20192;-86
2022/10/27 02:26:52;;;;;;;13.03;6.13;;;;;;;;;;5112286;28;20287;-87
2022/10/27 02:29:22;;;;;;;13.80;7.00;;;;;;;;;;5113502;28;20219;-86
2022/10/27 02:31:54;;;;;;;7.57;3.47;;;;;;;;;;5113716;28;20205;-86
2022/10/27 02:34:23;;;;;;;6.73;5.57;;;;;;;;;;5112442;28;20261;-86
2022/10/27 02:36:52;;;;;;;6.00;5.20;;;;;;;;;;5112043;28;20275;-87
2022/10/27 02:39:20;;;;;;;4.87;4.33;;;;;;;;;;5112825;28;20208;-86
2022/10/27 02:41:48;;;;;;;7.30;5.23;;;;;;;;;;5112244;28;20263;-87
2022/10/27 02:44:17;;;;;;;10.23;6.63;;;;;;;;;;5112164;28;20237;-87
2022/10/27 02:46:45;;;;;;;10.23;6.47;;;;;;;;;;5113456;28;20218;-86
2022/10/27 02:49:19;;;;;;;8.23;4.57;;;;;;;;;;5112408;28;20232;-86
2022/10/27 02:51:47;;;;;;;5.07;3.77;;;;;;;;;;5112133;28;20258;-86
2022/10/27 02:54:15;;;;;;;10.70;7.00;;;;;;;;;;5112452;28;20229;-86
2022/10/27 02:56:44;;;;;;;7.20;6.27;;;;;;;;;;5113339;28;20221;-86
2022/10/27 02:59:12;;;;;;;13.47;9.17;;;;;;;;;;5101579;28;20207;-86
2022/10/27 03:01:40;;;;;;;10.40;6.90;;;;;;;;;;5116091;28;20255;-87
2022/10/27 03:04:09;;;;;;;14.67;7.57;;;;;;;;;;5112365;28;20218;-86
2022/10/27 03:06:39;;;;;;;9.47;7.30;;;;;;;;;;5108234;28;20237;-87
2022/10/27 03:09:07;;;;;;;18.70;9.03;;;;;;;;;;5116012;28;20262;-86
2022/10/27 03:11:35;;;;;;;14.07;7.77;;;;;;;;;;5116303;28;20285;-86
2022/10/27 03:14:04;;;;;;;12.43;7.23;;;;;;;;;;5116095;28;20236;-86
2022/10/27 03:16:32;;;;;;;10.97;8.90;;;;;;;;;;5115868;28;20199;-86
2022/10/27 03:19:00;;;;;;;14.30;9.30;;;;;;;;;;5103376;28;20208;-86
2022/10/27 03:21:29;;;;;;;12.00;9.30;;;;;;;;;;5115703;28;20201;-86
2022/10/27 03:23:59;;;;;;;11.23;8.10;;;;;;;;;;5117025;28;20202;-86
2022/10/27 03:26:27;;;;;;;13.33;9.67;;;;;;;;;;5115800;28;20205;-86
2022/10/27 03:28:55;;;;;;;19.33;9.90;;;;;;;;;;5115771;28;20431;-86
2022/10/27 03:31:24;;;;;;;10.27;8.47;;;;;;;;;;5114714;28;20242;-86
2022/10/27 03:33:52;;;;;;;11.23;7.77;;;;;;;;;;5115564;28;20198;-86
2022/10/27 03:36:20;;;;;;;13.50;9.43;;;;;;;;;;5115549;28;20288;-86
2022/10/27 03:38:49;;;;;;;21.30;8.83;;;;;;;;;;5115445;28;20205;-86
2022/10/27 03:41:19;;;;;;;14.17;10.00;;;;;;;;;;5113656;28;20316;-86
2022/10/27 03:43:47;;;;;;;7.87;6.70;;;;;;;;;;5121887;27;20236;-85
2022/10/27 03:46:16;;;;;;;10.50;9.00;;;;;;;;;;5115299;28;20201;-86
2022/10/27 03:48:44;;;;;;;10.17;8.80;;;;;;;;;;5115324;28;20205;-86
2022/10/27 03:51:12;;;;;;;9.77;8.33;;;;;;;;;;5115127;28;20292;-86
2022/10/27 03:53:41;;;;;;;9.67;7.13;;;;;;;;;;5115487;28;20201;-86
2022/10/27 03:56:10;;;;;;;12.77;6.87;;;;;;;;;;5115211;28;20250;-86
2022/10/27 03:58:39;;;;;;;8.57;7.70;;;;;;;;;;5115590;28;20226;-86
2022/10/27 04:01:08;;;;;;;10.37;7.07;;;;;;;;;;5114914;28;20205;-86
2022/10/27 04:03:36;;;;;;;10.57;6.60;;;;;;;;;;5116395;28;20303;-87
2022/10/27 04:06:05;;;;;;;9.33;5.93;;;;;;;;;;5115107;28;20197;-86
2022/10/27 04:08:33;;;;;;;16.83;9.97;;;;;;;;;;5114532;28;20216;-86
2022/10/27 04:11:01;;;;;;;15.57;10.07;;;;;;;;;;5113880;28;20197;-87
2022/10/27 04:13:30;;;;;;;11.43;7.97;;;;;;;;;;5114737;28;20254;-87
2022/10/27 04:16:01;;;;;;;8.23;6.73;;;;;;;;;;5103994;28;20205;-86
2022/10/27 04:18:29;;;;;;;27.27;8.83;;;;;;;;;;5116065;28;20219;-86
2022/10/27 04:21:01;;;;;;;13.63;8.97;;;;;;;;;;5114686;28;20196;-87
2022/10/27 04:23:29;;;;;;;14.97;8.10;;;;;;;;;;5114429;28;20231;-86
2022/10/27 04:25:58;;;;;;;12.90;8.40;;;;;;;;;;5114615;28;20334;-86
2022/10/27 04:28:26;;;;;;;15.80;9.23;;;;;;;;;;5114543;28;20201;-87
2022/10/27 04:30:55;;;;;;;9.00;7.80;;;;;;;;;;5115501;28;20220;-86
2022/10/27 04:33:24;;;;;;;9.67;5.97;;;;;;;;;;5114669;28;20204;-87
2022/10/27 04:35:56;;;;;;;9.93;5.90;;;;;;;;;;5115565;28;20283;-86
2022/10/27 04:38:24;;;;;;;14.80;8.10;;;;;;;;;;5114404;28;20239;-86
2022/10/27 04:40:53;;;;;;;6.27;5.50;;;;;;;;;;5114748;28;20201;-87
2022/10/27 04:43:21;;;;;;;8.97;7.80;;;;;;;;;;5114189;28;20193;-86
2022/10/27 04:45:49;;;;;;;11.60;6.33;;;;;;;;;;5114353;28;20204;-86
2022/10/27 04:48:18;;;;;;;14.27;7.20;;;;;;;;;;5114057;28;20213;-86
2022/10/27 04:50:48;;;;;;;12.73;7.37;;;;;;;;;;5113839;28;20289;-86
2022/10/27 04:53:16;;;;;;;9.67;7.23;;;;;;;;;;5114327;28;20205;-86
2022/10/27 04:55:44;;;;;;;10.53;7.10;;;;;;;;;;5112792;28;20192;-86
2022/10/27 04:58:13;;;;;;;8.57;6.03;;;;;;;;;;5102707;28;20267;-86
2022/10/27 05:00:41;;;;;;;9.83;5.77;;;;;;;;;;5114033;28;20251;-86
2022/10/27 05:03:10;;;;;;;8.73;6.03;;;;;;;;;;5114008;28;20309;-86
2022/10/27 05:05:38;;;;;;;9.60;5.37;;;;;;;;;;5102422;28;20255;-87
2022/10/27 05:08:10;;;;;;;10.23;6.63;;;;;;;;;;5113718;28;20241;-86
2022/10/27 05:10:39;;;;;;;9.73;6.30;;;;;;;;;;5113912;28;20237;-86
2022/10/27 05:13:07;;;;;;;6.63;5.57;;;;;;;;;;5113757;28;20206;-85
2022/10/27 05:15:36;;;;;;;7.00;4.37;;;;;;;;;;5099748;28;20254;-86
2022/10/27 05:18:04;;;;;;;8.40;5.63;;;;;;;;;;5113203;28;20247;-86
2022/10/27 05:20:37;;;;;;;7.20;5.90;;;;;;;;;;5107777;28;20194;-86
2022/10/27 05:23:05;;;;;;;9.50;6.17;;;;;;;;;;5122562;27;20254;-86
2022/10/27 05:25:35;;;;;;;4.20;3.77;;;;;;;;;;5113253;28;20200;-86
2022/10/27 05:28:04;;;;;;;11.77;6.97;;;;;;;;;;5113292;28;20219;-87
2022/10/27 05:30:33;;;;;;;10.07;7.23;;;;;;;;;;5114331;28;20197;-87
2022/10/27 05:33:01;;;;;;;10.47;7.23;;;;;;;;;;5112958;28;20300;-87
2022/10/27 05:35:30;;;;;;;13.30;7.57;;;;;;;;;;5114440;28;20258;-86
2022/10/27 05:37:58;;;;;;;6.63;5.60;;;;;;;;;;5113900;28;20228;-86
2022/10/27 05:40:32;;;;;;;7.77;5.77;;;;;;;;;;5113107;28;20198;-87
2022/10/27 05:43:03;;;;;;;8.10;6.70;;;;;;;;;;5112722;28;20204;-87
2022/10/27 05:45:31;;;;;;;9.40;6.33;;;;;;;;;;5112915;28;20197;-87
2022/10/27 05:48:01;;;;;;;9.97;7.17;;;;;;;;;;5113156;28;20209;-87
2022/10/27 05:50:29;;;;;;;4.40;3.60;;;;;;;;;;5113057;28;20231;-87
2022/10/27 05:52:58;;;;;;;9.47;6.10;;;;;;;;;;5113789;28;20208;-87
2022/10/27 05:55:27;;;;;;;6.20;5.03;;;;;;;;;;5113113;28;20200;-86
2022/10/27 05:57:56;;;;;;;9.37;7.00;;;;;;;;;;5112786;28;20207;-87
2022/10/27 06:00:29;;;;;;;10.83;6.90;;;;;;;;;;5112937;28;20201;-87
2022/10/27 06:02:58;;;;;;;9.50;6.80;;;;;;;;;;5101367;28;20184;-86
2022/10/27 06:05:26;;;;;;;9.07;4.93;;;;;;;;;;5112729;28;20203;-86
2022/10/27 06:07:55;;;;;;;10.53;5.07;;;;;;;;;;5112596;28;20232;-86
2022/10/27 06:10:23;;;;;;;7.90;5.23;;;;;;;;;;5099618;28;20260;-87
2022/10/27 06:12:52;;;;;;;5.87;4.90;;;;;;;;;;5112710;28;20217;-87
2022/10/27 06:15:21;;;;;;;7.57;5.70;;;;;;;;;;5112708;28;20193;-87
2022/10/27 06:17:53;;;;;;;7.07;4.13;;;;;;;;;;5104458;28;20197;-87
2022/10/27 06:20:22;;;;;;;7.87;6.13;;;;;;;;;;5109849;28;20204;-87
2022/10/27 06:22:51;;;;;;;6.23;3.97;;;;;;;;;;5112662;28;20200;-87
2022/10/27 06:25:19;;;;;;;7.20;3.47;;;;;;;;;;5109675;28;20197;-87
2022/10/27 06:27:47;;;;;;;5.03;3.43;;;;;;;;;;5103515;28;20205;-87
2022/10/27 06:30:16;;;;;;;8.37;5.37;;;;;;;;;;5112624;28;20210;-87
2022/10/27 06:32:45;;;;;;;6.57;3.60;;;;;;;;;;5112552;28;20218;-87
2022/10/27 06:35:14;;;;;;;5.97;4.60;;;;;;;;;;5110781;28;20206;-87
2022/10/27 06:37:44;;;;;;;4.33;3.23;;;;;;;;;;5109733;28;20250;-87
2022/10/27 06:40:14;;;;;;;5.50;3.17;;;;;;;;;;5103637;28;20212;-87
2022/10/27 06:42:42;;;;;;;7.20;3.37;;;;;;;;;;5117401;28;20198;-87
2022/10/27 06:45:31;;;;;;;5.37;2.57;;;;;;;;;;5117807;28;20280;-87
2022/10/27 06:48:00;;;;;;;2.80;1.87;;;;;;;;;;5116610;28;20202;-87
2022/10/27 06:50:31;;;;;;;4.47;2.93;;;;;;;;;;5117019;28;20228;-87
2022/10/27 06:53:00;;;;;;;3.10;2.70;;;;;;;;;;5116371;28;20216;-87
2022/10/27 06:55:28;;;;;;;8.17;4.23;;;;;;;;;;5116605;28;20194;-86
2022/10/27 06:57:57;;;;;;;6.60;3.37;;;;;;;;;;5116402;28;20196;-86
2022/10/27 07:00:26;;;;;;;5.97;3.40;;;;;;;;;;5117231;28;20219;-86
2022/10/27 07:02:55;;;;;;;6.87;3.37;;;;;;;;;;5116209;28;20189;-87
2022/10/27 07:05:23;;;;;;;7.37;4.03;;;;;;;;;;5115883;28;20239;-86
2022/10/27 07:07:53;;;;;;;4.80;3.30;;;;;;;;;;5116515;28;20231;-86
2022/10/27 07:10:23;;;;;;;5.13;3.40;;;;;;;;;;5116385;28;20229;-86
2022/10/27 07:12:54;;;;;;;5.83;3.50;;;;;;;;;;5116451;28;20218;-86
2022/10/27 07:15:23;;;;;;;6.07;3.40;;;;;;;;;;5113740;28;20282;-86
2022/10/27 07:18:02;;;;;;;7.23;3.30;;;;;;;;;;5100782;28;20198;-86
2022/10/27 07:20:32;;;;;;;4.30;3.00;;;;;;;;;;5124551;27;20216;-86
2022/10/27 07:23:03;;;;;;;4.80;3.37;;;;;;;;;;5102043;27;20230;-87
2022/10/27 07:25:32;;;;;;;2.77;1.70;;;;;;;;;;5103727;28;20198;-87
2022/10/27 07:28:05;;;;;;;5.37;2.23;;;;;;;;;;5110540;28;20194;-86
2022/10/27 07:30:35;;;;;;;1.90;1.80;;;;;;;;;;5116527;27;20198;-86
2022/10/27 07:33:04;;;;;;;3.97;2.83;;;;;;;;;;5110350;27;20217;-86
2022/10/27 07:35:33;;;;;;;3.73;2.10;;;;;;;;;;5116750;27;20199;-85
2022/10/27 07:38:03;;;;;;;2.43;1.53;;;;;;;;;;5111240;27;20289;-87
2022/10/27 07:40:32;;;;;;;3.37;2.60;;;;;;;;;;5104772;27;20208;-87
2022/10/27 07:43:01;;;;;;;11.50;2.77;;;;;;;;;;5108427;27;20201;-86
2022/10/27 07:45:36;;;;;;;5.00;3.07;;;;;;;;;;5128704;27;20346;-86
2022/10/27 07:48:04;;;;;;;2.87;2.13;;;;;;;;;;5109921;27;20203;-86
2022/10/27 07:50:33;;;;;;;5.43;2.73;;;;;;;;;;5122997;27;20212;-86
2022/10/27 07:53:03;;;;;;;2.00;1.37;;;;;;;;;;5114408;27;20225;-87
2022/10/27 07:55:34;;;;;;;5.43;2.07;;;;;;;;;;5116433;27;20211;-87
2022/10/27 07:58:07;;;;;;;3.43;2.40;;;;;;;;;;5113579;27;20290;-86
2022/10/27 08:00:37;;;;;;;5.73;2.77;;;;;;;;;;5116294;27;20225;-87
2022/10/27 08:03:07;;;;;;;2.20;2.00;;;;;;;;;;5113808;27;20221;-87
2022/10/27 08:05:36;;;;;;;2.30;1.90;;;;;;;;;;5110806;27;20206;-87
2022/10/27 08:08:06;;;;;;;1.37;1.07;;;;;;;;;;5112003;27;20220;-86
2022/10/27 08:10:36;;;;;;;2.90;1.93;;;;;;;;;;5111210;27;20209;-86
2022/10/27 08:13:05;;;;;;;3.27;1.97;;;;;;;;;;5110030;27;20223;-86
2022/10/27 08:15:34;;;;;;;1.70;1.50;;;;;;;;;;5105663;28;20243;-85
2022/10/27 08:18:02;;;;;;;4.17;1.77;;;;;;;;;;5100544;28;20200;-86
2022/10/27 08:20:32;;;;;;;2.73;2.10;;;;;;;;;;5109087;27;20206;-86
2022/10/27 08:23:01;;;;;;;2.07;1.50;;;;;;;;;;5130980;27;20208;-86
2022/10/27 08:25:31;;;;;;;3.30;1.60;;;;;;;;;;5119145;27;20207;-86
2022/10/27 08:28:00;;;;;;;1.00;1.00;;;;;;;;;;5115614;27;20320;-85
2022/10/27 08:30:32;;;;;;;3.37;1.87;;;;;;;;;;5095066;27;20257;-86
2022/10/27 08:33:05;;;;;;;4.67;1.93;;;;;;;;;;5114693;27;20214;-86
2022/10/27 08:35:34;;;;;;;1.93;1.67;;;;;;;;;;5110985;27;20204;-86
2022/10/27 08:38:04;;;;;;;2.43;1.80;;;;;;;;;;5112014;27;20224;-86
2022/10/27 08:40:38;;;;;;;2.37;1.67;;;;;;;;;;5107154;27;20203;-86
2022/10/27 08:43:19;;;;;;;3.17;1.50;;;;;;;;;;5111857;27;20219;-86
2022/10/27 08:45:50;;;;;;;4.30;1.40;;;;;;;;;;5095373;28;20208;-86
2022/10/27 08:48:24;;;;;;;5.60;1.97;;;;;;;;;;5113543;28;20225;-86
2022/10/27 08:50:53;;;;;;;3.20;1.83;;;;;;;;;;5102878;28;20238;-85
2022/10/27 08:53:25;;;;;;;1.67;1.27;;;;;;;;;;5104979;28;20215;-85
2022/10/27 08:55:58;;;;;;;2.23;2.03;;;;;;;;;;5112477;28;20198;-84
2022/10/27 08:58:32;;;;;;;7.20;2.50;;;;;;;;;;5113277;28;20240;-85
2022/10/27 09:01:03;;;;;;;2.13;1.60;;;;;;;;;;5103328;28;20244;-85
2022/10/27 09:03:49;;;;;;;3.20;1.60;;;;;;;;;;5109229;28;20289;-85
2022/10/27 09:06:21;;;;;;;2.93;1.70;;;;;;;;;;5110316;28;20266;-86
2022/10/27 09:08:55;;;;;;;2.40;1.50;;;;;;;;;;5097218;28;20204;-86
2022/10/27 09:11:30;;;;;;;3.70;2.40;;;;;;;;;;5105388;28;20195;-85
2022/10/27 09:14:04;;;;;;;2.13;1.20;;;;;;;;;;5106692;28;20221;-85
2022/10/27 09:16:35;;;;;;;2.63;1.40;;;;;;;;;;5099723;28;20203;-85
2022/10/27 09:19:05;;;;;;;5.30;2.60;;;;;;;;;;5107101;28;20214;-85
2022/10/27 09:21:37;;;;;;;4.07;2.43;;;;;;;;;;5112625;28;20199;-84
2022/10/27 09:24:08;;;;;;;3.00;1.70;;;;;;;;;;5104049;28;20324;-84
2022/10/27 09:26:38;;;;;;;2.57;1.47;;;;;;;;;;5101649;28;20245;-85
2022/10/27 09:29:09;;;;;;;2.90;1.97;;;;;;;;;;5114654;27;20269;-85
2022/10/27 09:31:40;;;;;;;3.27;2.17;;;;;;;;;;5107125;27;20215;-86
2022/10/27 09:34:13;;;;;;;6.43;1.97;;;;;;;;;;5107882;27;20216;-86
2022/10/27 09:36:42;;;;;;;5.60;1.63;;;;;;;;;;5104828;27;20242;-85
2022/10/27 09:39:11;;;;;;;5.53;1.87;;;;;;;;;;5110790;27;20208;-84
2022/10/27 09:41:42;;;;;;;2.83;1.40;;;;;;;;;;5110997;27;20204;-86
2022/10/27 09:44:19;;;;;;;2.90;1.50;;;;;;;;;;5113831;27;20203;-86
2022/10/27 09:46:52;;;;;;;2.23;1.00;;;;;;;;;;5109345;27;20199;-85
2022/10/27 09:49:21;;;;;;;2.97;1.83;;;;;;;;;;5106683;27;20236;-85
2022/10/27 09:51:52;;;;;;;2.47;1.63;;;;;;;;;;5105596;27;20220;-84
2022/10/27 09:54:29;;;;;;;1.10;1.00;;;;;;;;;;5102839;27;20216;-84
2022/10/27 09:57:03;;;;;;;4.53;1.80;;;;;;;;;;5114250;27;20235;-84
2022/10/27 09:59:32;;;;;;;2.57;1.67;;;;;;;;;;5106899;27;20202;-84
2022/10/27 10:02:01;;;;;;;3.03;1.60;;;;;;;;;;5108197;28;20201;-86
2022/10/27 10:04:30;;;;;;;4.40;1.90;;;;;;;;;;5106542;27;20216;-86
2022/10/27 10:06:59;;;;;;;3.03;1.90;;;;;;;;;;5109699;27;20233;-86
2022/10/27 10:09:29;;;;;;;2.80;1.27;;;;;;;;;;5106166;28;20201;-86
2022/10/27 10:12:18;;;;;;;2.73;1.90;;;;;;;;;;5106239;27;20218;-86
2022/10/27 10:14:51;;;;;;;2.40;1.30;;;;;;;;;;5114541;27;20987;-86
2022/10/27 10:17:21;;;;;;;4.30;1.97;;;;;;;;;;5115890;28;20310;-86
2022/10/27 10:19:50;;;;;;;3.00;1.83;;;;;;;;;;5113991;27;20196;-86
2022/10/27 10:22:21;;;;;;;5.50;1.73;;;;;;;;;;5098308;28;20207;-85
2022/10/27 10:24:50;;;;;;;3.60;1.83;;;;;;;;;;5100945;28;20197;-86
2022/10/27 10:27:31;;;;;;;5.03;2.00;;;;;;;;;;5112002;28;20203;-87
2022/10/27 10:30:01;;;;;;;5.23;1.90;;;;;;;;;;5115332;28;20200;-87
2022/10/27 10:32:32;;;;;;;3.40;2.07;;;;;;;;;;5106756;28;20257;-86
2022/10/27 10:35:01;;;;;;;2.00;1.67;;;;;;;;;;5110746;28;20343;-86
2022/10/27 10:37:33;;;;;;;2.90;1.73;;;;;;;;;;5111196;28;20202;-88
2022/10/27 10:40:10;;;;;;;3.80;1.60;;;;;;;;;;5109233;28;21317;-87
2022/10/27 10:42:40;;;;;;;3.30;1.80;;;;;;;;;;5118905;28;20202;-86
2022/10/27 10:45:20;;;;;;;4.87;1.77;;;;;;;;;;5112547;28;20209;-86
2022/10/27 10:47:49;;;;;;;3.27;1.87;;;;;;;;;;5108169;28;20287;-86
2022/10/27 10:50:18;;;;;;;3.13;1.70;;;;;;;;;;5115746;28;20196;-86
2022/10/27 10:52:49;;;;;;;2.50;1.60;;;;;;;;;;5115172;28;20206;-87
2022/10/27 10:55:20;;;;;;;2.80;1.50;;;;;;;;;;5104471;28;20216;-87
2022/10/27 10:57:51;;;;;;;2.53;1.73;;;;;;;;;;5107559;28;20209;-85
2022/10/27 11:00:21;;;;;;;2.23;1.37;;;;;;;;;;5108414;28;20193;-87
2022/10/27 11:02:55;;;;;;;3.97;1.97;;;;;;;;;;5099714;28;20201;-87
2022/10/27 11:05:29;;;;;;;1.20;1.10;;;;;;;;;;5118333;28;20199;-88
2022/10/27 11:07:59;;;;;;;1.10;1.00;;;;;;;;;;5117044;28;20233;-87
2022/10/27 11:10:29;;;;;;;4.43;1.90;;;;;;;;;;5124770;27;20295;-87
2022/10/27 11:13:01;;;;;;;2.67;1.37;;;;;;;;;;5134829;27;20196;-89
2022/10/27 11:15:31;;;;;;;4.47;2.50;;;;;;;;;;5107886;28;20301;-88
2022/10/27 11:18:01;;;;;;;6.80;1.90;;;;;;;;;;5113297;28;20201;-88
2022/10/27 11:20:33;;;;;;;3.77;1.97;;;;;;;;;;5126864;27;20198;-87
2022/10/27 11:23:03;;;;;;;2.77;1.80;;;;;;;;;;5106084;27;20255;-88
2022/10/27 11:25:33;;;;;;;3.90;1.73;;;;;;;;;;5109478;27;20199;-87
2022/10/27 11:28:10;;;;;;;5.30;2.20;;;;;;;;;;5113461;27;20208;-88
2022/10/27 11:30:43;;;;;;;4.20;1.60;;;;;;;;;;5109073;27;20219;-87
2022/10/27 11:33:16;;;;;;;2.10;1.60;;;;;;;;;;5110102;27;20287;-88
2022/10/27 11:35:55;;;;;;;3.87;2.00;;;;;;;;;;5112687;27;20213;-88
2022/10/27 11:38:32;;;;;;;4.90;2.20;;;;;;;;;;5109469;27;20193;-88
2022/10/27 11:41:04;;;;;;;4.40;1.73;;;;;;;;;;5109700;27;20200;-87
2022/10/27 11:43:37;;;;;;;3.30;2.00;;;;;;;;;;5109099;27;20196;-87
2022/10/27 11:46:12;;;;;;;4.80;1.43;;;;;;;;;;5116728;27;20282;-89
2022/10/27 11:48:42;;;;;;;4.00;1.80;;;;;;;;;;5117078;27;20199;-87
2022/10/27 11:51:16;;;;;;;3.73;1.83;;;;;;;;;;5114019;27;20206;-87
2022/10/27 11:53:46;;;;;;;3.77;1.93;;;;;;;;;;5108012;27;20204;-88
2022/10/27 11:56:27;;;;;;;4.90;1.70;;;;;;;;;;5116600;27;20227;-87
2022/10/27 11:59:09;;;;;;;3.77;1.73;;;;;;;;;;5106154;27;20216;-88
2022/10/27 12:01:45;;;;;;;3.57;2.03;;;;;;;;;;5118228;27;20191;-87
2022/10/27 12:04:21;;;;;;;1.70;1.60;;;;;;;;;;5120076;27;20223;-86
2022/10/27 12:06:57;;;;;;;3.57;2.10;;;;;;;;;;5128854;27;20228;-87
2022/10/27 12:09:34;;;;;;;5.30;2.40;;;;;;;;;;5112566;28;20228;-87
2022/10/27 12:12:07;;;;;;;1.90;1.60;;;;;;;;;;5104286;28;20199;-87
2022/10/27 12:14:40;;;;;;;4.40;1.90;;;;;;;;;;5112072;27;20224;-87
2022/10/27 12:17:17;;;;;;;3.63;1.60;;;;;;;;;;5110843;27;20274;-88
2022/10/27 12:19:49;;;;;;;5.53;1.90;;;;;;;;;;5119655;27;20283;-86
2022/10/27 12:22:20;;;;;;;4.93;1.90;;;;;;;;;;5117067;27;20215;-86
2022/10/27 12:24:59;;;;;;;4.10;2.10;;;;;;;;;;5117661;27;20245;-86
2022/10/27 12:27:30;;;;;;;4.80;1.60;;;;;;;;;;5111738;28;20196;-87
2022/10/27 12:30:08;;;;;;;3.60;1.27;;;;;;;;;;5115344;28;20188;-86
2022/10/27 12:32:52;;;;;;;6.57;2.13;;;;;;;;;;5104053;28;20219;-87
2022/10/27 12:35:24;;;;;;;3.73;1.80;;;;;;;;;;5112578;28;20216;-86
2022/10/27 12:38:01;;;;;;;3.10;1.97;;;;;;;;;;5111033;28;20211;-86
2022/10/27 12:40:33;;;;;;;2.57;2.00;;;;;;;;;;5100790;27;20204;-88
2022/10/27 12:43:07;;;;;;;2.83;1.90;;;;;;;;;;5115998;27;20200;-87
2022/10/27 12:45:46;;;;;;;5.00;2.07;;;;;;;;;;5113387;27;20192;-87
2022/10/27 12:48:18;;;;;;;4.53;2.10;;;;;;;;;;5115425;27;20204;-87
2022/10/27 12:50:52;;;;;;;7.00;2.50;;;;;;;;;;5115507;28;20211;-87
2022/10/27 12:53:30;;;;;;;3.40;1.37;;;;;;;;;;5116794;28;20200;-87
2022/10/27 12:56:03;;;;;;;4.07;0.70;;;;;;;;;;5116670;28;20212;-86
2022/10/27 12:58:37;;;;;;;1.33;1.23;;;;;;;;;;5116740;28;20267;-86
2022/10/27 13:01:14;;;;;;;2.50;1.77;;;;;;;;;;5115879;28;20195;-86
2022/10/27 13:03:51;;;;;;;1.10;1.00;;;;;;;;;;5114620;28;20232;-86
2022/10/27 13:06:31;;;;;;;2.23;1.67;;;;;;;;;;5102672;28;20234;-85
2022/10/27 13:09:12;;;;;;;4.87;2.40;;;;;;;;;;5114012;28;20197;-85
2022/10/27 13:11:49;;;;;;;8.87;2.43;;;;;;;;;;5114911;28;20212;-85
2022/10/27 13:14:29;;;;;;;4.63;2.83;;;;;;;;;;5112225;28;20199;-86
2022/10/27 13:17:07;;;;;;;5.17;2.23;;;;;;;;;;5113790;28;20237;-85
2022/10/27 13:19:40;;;;;;;5.70;2.30;;;;;;;;;;5114038;28;20289;-86
2022/10/27 13:22:12;;;;;;;3.13;2.17;;;;;;;;;;5113813;28;20186;-85
2022/10/27 13:24:44;;;;;;;7.10;3.37;;;;;;;;;;5113816;28;20289;-86
2022/10/27 13:27:17;;;;;;;6.33;2.50;;;;;;;;;;5107140;28;20199;-86
2022/10/27 13:29:47;;;;;;;3.93;1.90;;;;;;;;;;5107900;28;20208;-86
2022/10/27 13:32:31;;;;;;;2.93;1.50;;;;;;;;;;5113677;28;20201;-87
2022/10/27 13:35:19;;;;;;;2.80;2.30;;;;;;;;;;5111124;28;20284;-86
2022/10/27 13:37:52;;;;;;;4.10;2.07;;;;;;;;;;5113858;28;20199;-86
2022/10/27 13:40:37;;;;;;;3.00;2.10;;;;;;;;;;5098666;28;20201;-86
2022/10/27 13:43:24;;;;;;;6.63;2.07;;;;;;;;;;5109999;28;20204;-86
2022/10/27 13:45:54;;;;;;;3.23;2.33;;;;;;;;;;5113614;28;20199;-87
2022/10/27 13:48:33;;;;;;;7.33;2.80;;;;;;;;;;5100854;28;20241;-86
2022/10/27 13:51:35;;;;;;;4.33;2.47;;;;;;;;;;5113322;28;20203;-86
2022/10/27 13:54:41;;;;;;;3.33;2.60;;;;;;;;;;5113103;28;20209;-87
2022/10/27 13:57:25;;;;;;;3.73;1.97;;;;;;;;;;5113148;28;20207;-85
2022/10/27 13:59:59;;;;;;;6.13;4.40;;;;;;;;;;5102173;28;20189;-86
2022/10/27 14:02:31;;;;;;;4.93;2.00;;;;;;;;;;5113334;28;20231;-87
2022/10/27 14:05:01;;;;;;;5.07;2.47;;;;;;;;;;5112782;28;20226;-87
2022/10/27 14:07:35;;;;;;;5.83;2.57;;;;;;;;;;5108719;28;20266;-87
2022/10/27 14:10:04;;;;;;;5.93;2.60;;;;;;;;;;5105890;28;20304;-87
2022/10/27 14:12:34;;;;;;;8.03;2.73;;;;;;;;;;5112032;28;20218;-87
2022/10/27 14:15:07;;;;;;;4.13;2.53;;;;;;;;;;5112636;28;20226;-87
2022/10/27 14:17:43;;;;;;;5.13;2.57;;;;;;;;;;5094638;28;20227;-87
2022/10/27 14:20:18;;;;;;;7.90;3.90;;;;;;;;;;5108082;28;20199;-87
2022/10/27 14:22:59;;;;;;;5.53;2.40;;;;;;;;;;5112780;28;20218;-87
2022/10/27 14:25:29;;;;;;;3.70;1.63;;;;;;;;;;5112465;28;20212;-87
2022/10/27 14:28:09;;;;;;;4.67;2.40;;;;;;;;;;5112505;28;20200;-87
2022/10/27 14:30:39;;;;;;;4.13;2.23;;;;;;;;;;5100273;28;20276;-87
2022/10/27 14:33:18;;;;;;;4.80;2.23;;;;;;;;;;5112996;28;20202;-87
2022/10/27 14:35:46;;;;;;;7.70;3.10;;;;;;;;;;5112690;28;20204;-87
2022/10/27 14:38:16;;;;;;;3.60;2.40;;;;;;;;;;5112627;28;20205;-87
2022/10/27 14:40:45;;;;;;;6.87;2.87;;;;;;;;;;5112934;28;20208;-87
2022/10/27 14:43:18;;;;;;;4.67;2.63;;;;;;;;;;5112509;28;20210;-87
2022/10/27 14:45:50;;;;;;;4.87;2.77;;;;;;;;;;5113037;28;20200;-87
2022/10/27 14:48:22;;;;;;;4.83;2.47;;;;;;;;;;5113584;28;20206;-87
2022/10/27 14:50:51;;;;;;;6.37;3.13;;;;;;;;;;5112536;28;20196;-87
2022/10/27 14:53:23;;;;;;;2.60;1.80;;;;;;;;;;5112601;28;20291;-87
2022/10/27 14:56:02;;;;;;;5.53;2.70;;;;;;;;;;5115994;28;20202;-87
2022/10/27 14:58:31;;;;;;;4.73;2.23;;;;;;;;;;5116607;28;20225;-87
2022/10/27 15:01:01;;;;;;;7.07;2.90;;;;;;;;;;5116652;28;20188;-87
2022/10/27 15:03:33;;;;;;;3.80;2.50;;;;;;;;;;5117536;28;20245;-87
2022/10/27 15:06:02;;;;;;;6.17;3.50;;;;;;;;;;5116478;28;20206;-87